sensor_id;sensor_type;location;lat;lon;timestamp;P1;durP1;ratioP1;P2;durP2;ratioP2
41687;SDS011;27371;42.686;23.362;2023-06-04T00:03:48;4.60;;;2.20;;
41687;SDS011;27371;42.686;23.362;2023-06-04T00:06:13;4.50;;;2.15;;
41687;SDS011;27371;42.686;23.362;2023-06-04T00:08:39;2.90;;;1.80;;
41687;SDS011;27371;42.686;23.362;2023-06-04T00:11:04;3.85;;;2.13;;
41687;SDS011;27371;42.686;23.362;2023-06-04T00:13:30;2.60;;;2.10;;
41687;SDS011;27371;42.686;23.362;2023-06-04T00:15:55;3.00;;;2.08;;
41687;SDS011;27371;42.686;23.362;2023-06-04T00:18:21;3.92;;;1.95;;
41687;SDS011;27371;42.686;23.362;2023-06-04T00:20:47;2.70;;;2.20;;
41687;SDS011;27371;42.686;23.362;2023-06-04T00:23:12;3.85;;;2.22;;
41687;SDS011;27371;42.686;23.362;2023-06-04T00:25:38;3.55;;;1.98;;
41687;SDS011;27371;42.686;23.362;2023-06-04T00:28:04;3.05;;;2.15;;
41687;SDS011;27371;42.686;23.362;2023-06-04T00:30:29;3.28;;;2.15;;
41687;SDS011;27371;42.686;23.362;2023-06-04T00:32:55;2.50;;;1.80;;
41687;SDS011;27371;42.686;23.362;2023-06-04T00:35:20;2.58;;;2.30;;
41687;SDS011;27371;42.686;23.362;2023-06-04T00:37:46;3.00;;;2.15;;
41687;SDS011;27371;42.686;23.362;2023-06-04T00:40:12;4.75;;;2.40;;
41687;SDS011;27371;42.686;23.362;2023-06-04T00:42:37;4.00;;;2.35;;
41687;SDS011;27371;42.686;23.362;2023-06-04T00:45:03;5.13;;;2.88;;
41687;SDS011;27371;42.686;23.362;2023-06-04T00:47:32;4.20;;;2.58;;
41687;SDS011;27371;42.686;23.362;2023-06-04T00:49:58;4.38;;;2.65;;
41687;SDS011;27371;42.686;23.362;2023-06-04T00:52:24;3.55;;;2.50;;
41687;SDS011;27371;42.686;23.362;2023-06-04T00:54:50;5.35;;;2.67;;
41687;SDS011;27371;42.686;23.362;2023-06-04T00:57:20;5.40;;;2.28;;
41687;SDS011;27371;42.686;23.362;2023-06-04T00:59:47;2.95;;;2.50;;
41687;SDS011;27371;42.686;23.362;2023-06-04T01:02:14;2.75;;;2.25;;
41687;SDS011;27371;42.686;23.362;2023-06-04T01:07:36;3.05;;;2.42;;
41687;SDS011;27371;42.686;23.362;2023-06-04T01:10:05;3.10;;;2.60;;
41687;SDS011;27371;42.686;23.362;2023-06-04T01:12:31;4.05;;;2.95;;
41687;SDS011;27371;42.686;23.362;2023-06-04T01:14:57;4.75;;;2.83;;
41687;SDS011;27371;42.686;23.362;2023-06-04T01:17:25;3.28;;;2.67;;
41687;SDS011;27371;42.686;23.362;2023-06-04T01:25:27;3.85;;;2.28;;
41687;SDS011;27371;42.686;23.362;2023-06-04T01:27:58;3.75;;;2.15;;
41687;SDS011;27371;42.686;23.362;2023-06-04T01:30:26;5.47;;;2.60;;
41687;SDS011;27371;42.686;23.362;2023-06-04T01:33:00;4.70;;;2.10;;
41687;SDS011;27371;42.686;23.362;2023-06-04T01:35:26;8.40;;;2.40;;
41687;SDS011;27371;42.686;23.362;2023-06-04T01:37:53;5.72;;;2.10;;
41687;SDS011;27371;42.686;23.362;2023-06-04T01:40:19;3.10;;;2.20;;
41687;SDS011;27371;42.686;23.362;2023-06-04T01:42:45;2.47;;;2.22;;
41687;SDS011;27371;42.686;23.362;2023-06-04T01:45:11;4.05;;;1.70;;
41687;SDS011;27371;42.686;23.362;2023-06-04T01:47:37;3.83;;;2.08;;
41687;SDS011;27371;42.686;23.362;2023-06-04T01:50:05;2.53;;;2.00;;
41687;SDS011;27371;42.686;23.362;2023-06-04T01:52:37;4.13;;;2.30;;
41687;SDS011;27371;42.686;23.362;2023-06-04T01:55:07;3.83;;;1.95;;
41687;SDS011;27371;42.686;23.362;2023-06-04T01:57:34;4.45;;;3.03;;
41687;SDS011;27371;42.686;23.362;2023-06-04T02:00:03;2.30;;;1.70;;
41687;SDS011;27371;42.686;23.362;2023-06-04T02:02:32;2.42;;;2.00;;
41687;SDS011;27371;42.686;23.362;2023-06-04T02:04:58;2.85;;;1.70;;
41687;SDS011;27371;42.686;23.362;2023-06-04T02:07:23;3.90;;;1.80;;
41687;SDS011;27371;42.686;23.362;2023-06-04T02:09:50;4.38;;;1.95;;
41687;SDS011;27371;42.686;23.362;2023-06-04T02:12:16;4.32;;;2.88;;
41687;SDS011;27371;42.686;23.362;2023-06-04T02:14:43;4.35;;;1.85;;
41687;SDS011;27371;42.686;23.362;2023-06-04T02:17:11;3.63;;;2.30;;
41687;SDS011;27371;42.686;23.362;2023-06-04T02:19:44;2.50;;;2.20;;
41687;SDS011;27371;42.686;23.362;2023-06-04T02:22:13;3.72;;;2.40;;
41687;SDS011;27371;42.686;23.362;2023-06-04T02:24:39;3.35;;;2.33;;
41687;SDS011;27371;42.686;23.362;2023-06-04T02:27:07;4.55;;;2.17;;
41687;SDS011;27371;42.686;23.362;2023-06-04T02:29:34;4.47;;;2.20;;
41687;SDS011;27371;42.686;23.362;2023-06-04T02:31:59;4.80;;;2.05;;
41687;SDS011;27371;42.686;23.362;2023-06-04T02:34:25;3.40;;;2.13;;
41687;SDS011;27371;42.686;23.362;2023-06-04T02:36:50;3.63;;;2.03;;
41687;SDS011;27371;42.686;23.362;2023-06-04T02:39:19;3.15;;;2.22;;
41687;SDS011;27371;42.686;23.362;2023-06-04T02:41:45;3.88;;;2.03;;
41687;SDS011;27371;42.686;23.362;2023-06-04T02:44:11;7.38;;;2.25;;
41687;SDS011;27371;42.686;23.362;2023-06-04T02:46:36;4.30;;;1.85;;
41687;SDS011;27371;42.686;23.362;2023-06-04T02:49:02;3.58;;;2.60;;
41687;SDS011;27371;42.686;23.362;2023-06-04T02:51:28;4.47;;;2.20;;
41687;SDS011;27371;42.686;23.362;2023-06-04T02:53:54;3.63;;;1.80;;
41687;SDS011;27371;42.686;23.362;2023-06-04T02:56:20;2.42;;;1.92;;
41687;SDS011;27371;42.686;23.362;2023-06-04T02:58:52;4.13;;;2.38;;
41687;SDS011;27371;42.686;23.362;2023-06-04T03:01:19;4.10;;;2.25;;
41687;SDS011;27371;42.686;23.362;2023-06-04T03:03:46;3.78;;;2.30;;
41687;SDS011;27371;42.686;23.362;2023-06-04T03:06:12;3.25;;;2.10;;
41687;SDS011;27371;42.686;23.362;2023-06-04T03:08:39;3.33;;;1.80;;
41687;SDS011;27371;42.686;23.362;2023-06-04T03:11:05;3.55;;;1.70;;
41687;SDS011;27371;42.686;23.362;2023-06-04T03:13:31;5.03;;;2.13;;
41687;SDS011;27371;42.686;23.362;2023-06-04T03:15:57;3.80;;;2.05;;
41687;SDS011;27371;42.686;23.362;2023-06-04T03:18:26;4.30;;;1.95;;
41687;SDS011;27371;42.686;23.362;2023-06-04T03:20:52;1.92;;;1.67;;
41687;SDS011;27371;42.686;23.362;2023-06-04T03:23:18;2.58;;;1.83;;
41687;SDS011;27371;42.686;23.362;2023-06-04T03:25:44;3.03;;;2.00;;
41687;SDS011;27371;42.686;23.362;2023-06-04T03:28:10;3.70;;;2.08;;
41687;SDS011;27371;42.686;23.362;2023-06-04T03:30:36;4.93;;;1.98;;
41687;SDS011;27371;42.686;23.362;2023-06-04T03:33:01;2.72;;;2.00;;
41687;SDS011;27371;42.686;23.362;2023-06-04T03:35:27;2.40;;;1.85;;
41687;SDS011;27371;42.686;23.362;2023-06-04T03:37:53;6.82;;;2.00;;
41687;SDS011;27371;42.686;23.362;2023-06-04T03:40:19;2.58;;;1.88;;
41687;SDS011;27371;42.686;23.362;2023-06-04T03:42:44;2.40;;;1.88;;
41687;SDS011;27371;42.686;23.362;2023-06-04T03:45:10;3.20;;;2.17;;
41687;SDS011;27371;42.686;23.362;2023-06-04T03:47:35;3.67;;;2.13;;
41687;SDS011;27371;42.686;23.362;2023-06-04T03:50:03;2.72;;;2.00;;
41687;SDS011;27371;42.686;23.362;2023-06-04T03:52:29;2.95;;;2.17;;
41687;SDS011;27371;42.686;23.362;2023-06-04T03:54:54;3.30;;;2.25;;
41687;SDS011;27371;42.686;23.362;2023-06-04T03:57:20;2.67;;;2.40;;
41687;SDS011;27371;42.686;23.362;2023-06-04T03:59:45;3.58;;;2.20;;
41687;SDS011;27371;42.686;23.362;2023-06-04T04:02:11;3.33;;;2.28;;
41687;SDS011;27371;42.686;23.362;2023-06-04T04:04:36;5.10;;;2.33;;
41687;SDS011;27371;42.686;23.362;2023-06-04T04:07:02;5.53;;;2.28;;
41687;SDS011;27371;42.686;23.362;2023-06-04T04:09:27;5.10;;;2.20;;
41687;SDS011;27371;42.686;23.362;2023-06-04T04:11:53;5.00;;;2.17;;
41687;SDS011;27371;42.686;23.362;2023-06-04T04:14:18;6.60;;;2.50;;
41687;SDS011;27371;42.686;23.362;2023-06-04T04:16:44;4.20;;;2.50;;
41687;SDS011;27371;42.686;23.362;2023-06-04T04:19:10;4.70;;;2.28;;
41687;SDS011;27371;42.686;23.362;2023-06-04T04:21:36;5.60;;;2.70;;
41687;SDS011;27371;42.686;23.362;2023-06-04T04:24:02;4.00;;;2.30;;
41687;SDS011;27371;42.686;23.362;2023-06-04T04:26:28;3.70;;;2.05;;
41687;SDS011;27371;42.686;23.362;2023-06-04T04:28:54;3.10;;;2.60;;
41687;SDS011;27371;42.686;23.362;2023-06-04T04:31:25;4.28;;;2.25;;
41687;SDS011;27371;42.686;23.362;2023-06-04T04:33:51;3.95;;;2.50;;
41687;SDS011;27371;42.686;23.362;2023-06-04T04:36:17;2.90;;;2.15;;
41687;SDS011;27371;42.686;23.362;2023-06-04T04:38:45;3.55;;;2.55;;
41687;SDS011;27371;42.686;23.362;2023-06-04T04:41:11;6.30;;;3.03;;
41687;SDS011;27371;42.686;23.362;2023-06-04T04:43:37;3.67;;;2.90;;
41687;SDS011;27371;42.686;23.362;2023-06-04T04:46:06;3.22;;;2.65;;
41687;SDS011;27371;42.686;23.362;2023-06-04T04:48:32;3.90;;;2.80;;
41687;SDS011;27371;42.686;23.362;2023-06-04T04:50:58;4.47;;;3.03;;
41687;SDS011;27371;42.686;23.362;2023-06-04T04:53:24;5.93;;;3.13;;
41687;SDS011;27371;42.686;23.362;2023-06-04T04:55:49;5.68;;;3.17;;
41687;SDS011;27371;42.686;23.362;2023-06-04T04:58:15;5.95;;;3.30;;
41687;SDS011;27371;42.686;23.362;2023-06-04T05:00:42;5.97;;;3.00;;
41687;SDS011;27371;42.686;23.362;2023-06-04T05:03:07;4.20;;;2.63;;
41687;SDS011;27371;42.686;23.362;2023-06-04T05:05:33;8.38;;;3.72;;
41687;SDS011;27371;42.686;23.362;2023-06-04T05:07:58;5.93;;;3.50;;
41687;SDS011;27371;42.686;23.362;2023-06-04T05:10:24;3.65;;;3.00;;
41687;SDS011;27371;42.686;23.362;2023-06-04T05:12:56;4.50;;;3.25;;
41687;SDS011;27371;42.686;23.362;2023-06-04T05:15:23;6.55;;;3.40;;
41687;SDS011;27371;42.686;23.362;2023-06-04T05:17:51;6.57;;;3.35;;
41687;SDS011;27371;42.686;23.362;2023-06-04T05:20:18;5.28;;;3.63;;
41687;SDS011;27371;42.686;23.362;2023-06-04T05:22:46;5.97;;;3.00;;
41687;SDS011;27371;42.686;23.362;2023-06-04T05:25:11;6.10;;;3.50;;
41687;SDS011;27371;42.686;23.362;2023-06-04T05:27:37;4.13;;;3.28;;
41687;SDS011;27371;42.686;23.362;2023-06-04T05:30:03;6.47;;;3.22;;
41687;SDS011;27371;42.686;23.362;2023-06-04T05:32:29;5.30;;;2.88;;
41687;SDS011;27371;42.686;23.362;2023-06-04T05:34:57;6.85;;;3.92;;
41687;SDS011;27371;42.686;23.362;2023-06-04T05:37:26;5.10;;;3.30;;
41687;SDS011;27371;42.686;23.362;2023-06-04T05:39:55;5.78;;;3.22;;
41687;SDS011;27371;42.686;23.362;2023-06-04T05:42:21;7.40;;;4.47;;
41687;SDS011;27371;42.686;23.362;2023-06-04T05:44:47;4.95;;;3.20;;
41687;SDS011;27371;42.686;23.362;2023-06-04T05:47:13;6.10;;;3.50;;
41687;SDS011;27371;42.686;23.362;2023-06-04T05:49:38;9.07;;;3.78;;
41687;SDS011;27371;42.686;23.362;2023-06-04T05:52:04;7.50;;;3.45;;
41687;SDS011;27371;42.686;23.362;2023-06-04T05:54:30;7.35;;;2.90;;
41687;SDS011;27371;42.686;23.362;2023-06-04T05:56:55;7.43;;;3.80;;
41687;SDS011;27371;42.686;23.362;2023-06-04T05:59:21;4.30;;;3.20;;
41687;SDS011;27371;42.686;23.362;2023-06-04T06:01:47;6.07;;;3.58;;
41687;SDS011;27371;42.686;23.362;2023-06-04T06:04:15;5.78;;;3.70;;
41687;SDS011;27371;42.686;23.362;2023-06-04T06:06:41;7.25;;;3.47;;
41687;SDS011;27371;42.686;23.362;2023-06-04T06:09:09;6.68;;;3.50;;
41687;SDS011;27371;42.686;23.362;2023-06-04T06:11:35;4.97;;;2.70;;
41687;SDS011;27371;42.686;23.362;2023-06-04T06:14:00;5.00;;;3.20;;
41687;SDS011;27371;42.686;23.362;2023-06-04T06:16:26;7.50;;;3.40;;
41687;SDS011;27371;42.686;23.362;2023-06-04T06:18:52;5.57;;;3.20;;
41687;SDS011;27371;42.686;23.362;2023-06-04T06:21:17;6.85;;;3.42;;
41687;SDS011;27371;42.686;23.362;2023-06-04T06:23:43;9.25;;;3.50;;
41687;SDS011;27371;42.686;23.362;2023-06-04T06:26:09;6.18;;;2.92;;
41687;SDS011;27371;42.686;23.362;2023-06-04T06:28:34;5.20;;;3.33;;
41687;SDS011;27371;42.686;23.362;2023-06-04T06:31:01;5.95;;;3.40;;
41687;SDS011;27371;42.686;23.362;2023-06-04T06:33:27;6.43;;;3.35;;
41687;SDS011;27371;42.686;23.362;2023-06-04T06:35:53;6.03;;;3.10;;
41687;SDS011;27371;42.686;23.362;2023-06-04T06:38:18;6.68;;;3.20;;
41687;SDS011;27371;42.686;23.362;2023-06-04T06:40:44;6.60;;;3.28;;
41687;SDS011;27371;42.686;23.362;2023-06-04T06:43:09;5.18;;;2.90;;
41687;SDS011;27371;42.686;23.362;2023-06-04T06:45:35;5.65;;;3.45;;
41687;SDS011;27371;42.686;23.362;2023-06-04T06:48:01;7.40;;;2.95;;
41687;SDS011;27371;42.686;23.362;2023-06-04T06:50:27;4.53;;;2.97;;
41687;SDS011;27371;42.686;23.362;2023-06-04T06:52:52;4.35;;;3.00;;
41687;SDS011;27371;42.686;23.362;2023-06-04T06:55:18;7.18;;;3.00;;
41687;SDS011;27371;42.686;23.362;2023-06-04T06:57:45;6.07;;;3.00;;
41687;SDS011;27371;42.686;23.362;2023-06-04T07:00:10;6.85;;;2.95;;
41687;SDS011;27371;42.686;23.362;2023-06-04T07:02:36;5.72;;;2.70;;
41687;SDS011;27371;42.686;23.362;2023-06-04T07:05:02;4.10;;;2.90;;
41687;SDS011;27371;42.686;23.362;2023-06-04T07:07:28;7.95;;;3.03;;
41687;SDS011;27371;42.686;23.362;2023-06-04T07:09:53;6.22;;;3.33;;
41687;SDS011;27371;42.686;23.362;2023-06-04T07:12:19;4.95;;;3.10;;
41687;SDS011;27371;42.686;23.362;2023-06-04T07:14:44;7.05;;;3.22;;
41687;SDS011;27371;42.686;23.362;2023-06-04T07:17:10;5.93;;;3.22;;
41687;SDS011;27371;42.686;23.362;2023-06-04T07:19:36;4.20;;;3.30;;
41687;SDS011;27371;42.686;23.362;2023-06-04T07:22:01;3.85;;;2.78;;
41687;SDS011;27371;42.686;23.362;2023-06-04T07:24:27;8.00;;;3.20;;
41687;SDS011;27371;42.686;23.362;2023-06-04T07:26:52;3.63;;;2.78;;
41687;SDS011;27371;42.686;23.362;2023-06-04T07:29:18;5.75;;;3.38;;
41687;SDS011;27371;42.686;23.362;2023-06-04T07:31:43;6.25;;;3.45;;
41687;SDS011;27371;42.686;23.362;2023-06-04T07:34:09;8.85;;;3.10;;
41687;SDS011;27371;42.686;23.362;2023-06-04T07:36:34;5.15;;;3.38;;
41687;SDS011;27371;42.686;23.362;2023-06-04T07:39:00;5.60;;;3.20;;
41687;SDS011;27371;42.686;23.362;2023-06-04T07:41:25;4.57;;;2.97;;
41687;SDS011;27371;42.686;23.362;2023-06-04T07:43:54;3.90;;;3.03;;
41687;SDS011;27371;42.686;23.362;2023-06-04T07:46:19;8.40;;;3.25;;
41687;SDS011;27371;42.686;23.362;2023-06-04T07:48:45;5.25;;;2.90;;
41687;SDS011;27371;42.686;23.362;2023-06-04T07:51:10;6.07;;;3.17;;
41687;SDS011;27371;42.686;23.362;2023-06-04T07:53:37;4.55;;;3.08;;
41687;SDS011;27371;42.686;23.362;2023-06-04T07:56:03;7.03;;;3.65;;
41687;SDS011;27371;42.686;23.362;2023-06-04T07:58:31;7.28;;;3.40;;
41687;SDS011;27371;42.686;23.362;2023-06-04T08:00:57;7.72;;;3.67;;
41687;SDS011;27371;42.686;23.362;2023-06-04T08:03:22;6.65;;;3.85;;
41687;SDS011;27371;42.686;23.362;2023-06-04T08:05:49;9.52;;;4.50;;
41687;SDS011;27371;42.686;23.362;2023-06-04T08:08:15;5.97;;;3.92;;
41687;SDS011;27371;42.686;23.362;2023-06-04T08:10:40;5.55;;;3.70;;
41687;SDS011;27371;42.686;23.362;2023-06-04T08:13:06;5.88;;;4.50;;
41687;SDS011;27371;42.686;23.362;2023-06-04T08:15:32;5.25;;;3.40;;
41687;SDS011;27371;42.686;23.362;2023-06-04T08:17:57;6.80;;;3.88;;
41687;SDS011;27371;42.686;23.362;2023-06-04T08:20:23;5.72;;;3.40;;
41687;SDS011;27371;42.686;23.362;2023-06-04T08:22:49;5.10;;;3.42;;
41687;SDS011;27371;42.686;23.362;2023-06-04T08:25:14;7.95;;;3.50;;
41687;SDS011;27371;42.686;23.362;2023-06-04T08:27:41;5.85;;;4.03;;
41687;SDS011;27371;42.686;23.362;2023-06-04T08:30:07;7.30;;;3.92;;
41687;SDS011;27371;42.686;23.362;2023-06-04T08:32:33;6.25;;;4.45;;
41687;SDS011;27371;42.686;23.362;2023-06-04T08:34:59;5.35;;;3.88;;
41687;SDS011;27371;42.686;23.362;2023-06-04T08:37:24;8.45;;;3.90;;
41687;SDS011;27371;42.686;23.362;2023-06-04T08:39:50;7.00;;;4.13;;
41687;SDS011;27371;42.686;23.362;2023-06-04T08:42:18;9.57;;;3.70;;
41687;SDS011;27371;42.686;23.362;2023-06-04T08:44:52;8.88;;;4.07;;
41687;SDS011;27371;42.686;23.362;2023-06-04T08:47:18;8.80;;;4.60;;
41687;SDS011;27371;42.686;23.362;2023-06-04T08:49:45;7.32;;;4.13;;
41687;SDS011;27371;42.686;23.362;2023-06-04T08:52:15;5.97;;;4.70;;
41687;SDS011;27371;42.686;23.362;2023-06-04T08:54:41;9.30;;;4.88;;
41687;SDS011;27371;42.686;23.362;2023-06-04T08:57:06;9.25;;;4.50;;
41687;SDS011;27371;42.686;23.362;2023-06-04T08:59:33;10.80;;;4.18;;
41687;SDS011;27371;42.686;23.362;2023-06-04T09:01:59;9.45;;;4.72;;
41687;SDS011;27371;42.686;23.362;2023-06-04T09:04:25;6.80;;;4.82;;
41687;SDS011;27371;42.686;23.362;2023-06-04T09:06:51;8.65;;;4.65;;
41687;SDS011;27371;42.686;23.362;2023-06-04T09:09:18;11.68;;;4.35;;
41687;SDS011;27371;42.686;23.362;2023-06-04T09:11:51;7.45;;;4.47;;
41687;SDS011;27371;42.686;23.362;2023-06-04T09:14:17;6.13;;;4.70;;
41687;SDS011;27371;42.686;23.362;2023-06-04T09:16:44;10.63;;;5.07;;
41687;SDS011;27371;42.686;23.362;2023-06-04T09:19:14;6.18;;;4.68;;
41687;SDS011;27371;42.686;23.362;2023-06-04T09:21:47;7.68;;;5.70;;
41687;SDS011;27371;42.686;23.362;2023-06-04T09:24:24;8.27;;;5.85;;
41687;SDS011;27371;42.686;23.362;2023-06-04T09:26:51;11.95;;;5.15;;
41687;SDS011;27371;42.686;23.362;2023-06-04T09:29:17;6.53;;;5.10;;
41687;SDS011;27371;42.686;23.362;2023-06-04T09:31:58;10.32;;;5.60;;
41687;SDS011;27371;42.686;23.362;2023-06-04T09:34:27;6.35;;;4.95;;
41687;SDS011;27371;42.686;23.362;2023-06-04T09:36:53;7.97;;;4.75;;
41687;SDS011;27371;42.686;23.362;2023-06-04T09:39:19;6.60;;;4.90;;
41687;SDS011;27371;42.686;23.362;2023-06-04T09:41:56;6.95;;;4.63;;
41687;SDS011;27371;42.686;23.362;2023-06-04T09:44:22;10.05;;;5.05;;
41687;SDS011;27371;42.686;23.362;2023-06-04T09:46:54;10.52;;;5.32;;
41687;SDS011;27371;42.686;23.362;2023-06-04T09:49:21;8.63;;;5.18;;
41687;SDS011;27371;42.686;23.362;2023-06-04T09:51:47;12.75;;;5.00;;
41687;SDS011;27371;42.686;23.362;2023-06-04T09:54:16;8.70;;;4.82;;
41687;SDS011;27371;42.686;23.362;2023-06-04T09:56:42;7.30;;;4.60;;
41687;SDS011;27371;42.686;23.362;2023-06-04T09:59:08;8.30;;;4.70;;
41687;SDS011;27371;42.686;23.362;2023-06-04T10:01:35;12.05;;;5.68;;
41687;SDS011;27371;42.686;23.362;2023-06-04T10:04:05;7.43;;;5.65;;
41687;SDS011;27371;42.686;23.362;2023-06-04T10:06:34;7.38;;;4.75;;
41687;SDS011;27371;42.686;23.362;2023-06-04T10:09:09;11.40;;;4.72;;
41687;SDS011;27371;42.686;23.362;2023-06-04T10:11:38;7.28;;;5.28;;
41687;SDS011;27371;42.686;23.362;2023-06-04T10:14:17;8.25;;;5.03;;
41687;SDS011;27371;42.686;23.362;2023-06-04T10:16:46;7.60;;;4.75;;
41687;SDS011;27371;42.686;23.362;2023-06-04T10:19:13;9.63;;;5.05;;
41687;SDS011;27371;42.686;23.362;2023-06-04T10:21:40;5.55;;;4.95;;
41687;SDS011;27371;42.686;23.362;2023-06-04T10:24:07;10.52;;;4.65;;
41687;SDS011;27371;42.686;23.362;2023-06-04T10:26:33;8.18;;;5.20;;
41687;SDS011;27371;42.686;23.362;2023-06-04T10:29:00;7.32;;;4.35;;
41687;SDS011;27371;42.686;23.362;2023-06-04T10:31:27;8.93;;;5.45;;
41687;SDS011;27371;42.686;23.362;2023-06-04T10:33:53;7.10;;;4.72;;
41687;SDS011;27371;42.686;23.362;2023-06-04T10:36:22;6.82;;;3.95;;
41687;SDS011;27371;42.686;23.362;2023-06-04T10:38:50;6.82;;;4.20;;
41687;SDS011;27371;42.686;23.362;2023-06-04T10:41:17;8.18;;;4.35;;
41687;SDS011;27371;42.686;23.362;2023-06-04T10:43:47;6.20;;;4.80;;
41687;SDS011;27371;42.686;23.362;2023-06-04T10:46:17;7.25;;;4.50;;
41687;SDS011;27371;42.686;23.362;2023-06-04T10:48:51;6.90;;;4.65;;
41687;SDS011;27371;42.686;23.362;2023-06-04T10:51:30;6.15;;;4.25;;
41687;SDS011;27371;42.686;23.362;2023-06-04T10:53:58;4.35;;;3.95;;
41687;SDS011;27371;42.686;23.362;2023-06-04T10:56:31;8.38;;;4.10;;
41687;SDS011;27371;42.686;23.362;2023-06-04T10:58:58;5.72;;;4.15;;
41687;SDS011;27371;42.686;23.362;2023-06-04T11:01:29;5.47;;;4.72;;
41687;SDS011;27371;42.686;23.362;2023-06-04T11:03:56;6.72;;;4.97;;
41687;SDS011;27371;42.686;23.362;2023-06-04T11:06:22;5.60;;;4.60;;
41687;SDS011;27371;42.686;23.362;2023-06-04T11:09:04;10.02;;;4.93;;
41687;SDS011;27371;42.686;23.362;2023-06-04T11:11:32;7.28;;;5.00;;
41687;SDS011;27371;42.686;23.362;2023-06-04T11:14:09;5.25;;;4.57;;
41687;SDS011;27371;42.686;23.362;2023-06-04T11:16:37;5.07;;;4.57;;
41687;SDS011;27371;42.686;23.362;2023-06-04T11:19:03;6.88;;;4.25;;
41687;SDS011;27371;42.686;23.362;2023-06-04T11:21:29;6.50;;;4.43;;
41687;SDS011;27371;42.686;23.362;2023-06-04T11:23:57;8.88;;;4.50;;
41687;SDS011;27371;42.686;23.362;2023-06-04T11:26:32;5.63;;;4.38;;
41687;SDS011;27371;42.686;23.362;2023-06-04T11:28:59;8.27;;;4.80;;
41687;SDS011;27371;42.686;23.362;2023-06-04T11:31:26;7.38;;;4.80;;
41687;SDS011;27371;42.686;23.362;2023-06-04T11:33:52;5.53;;;4.38;;
41687;SDS011;27371;42.686;23.362;2023-06-04T11:41:31;5.97;;;4.22;;
41687;SDS011;27371;42.686;23.362;2023-06-04T11:44:00;6.60;;;4.60;;
41687;SDS011;27371;42.686;23.362;2023-06-04T11:46:32;4.63;;;4.22;;
41687;SDS011;27371;42.686;23.362;2023-06-04T11:48:58;6.88;;;4.70;;
41687;SDS011;27371;42.686;23.362;2023-06-04T11:51:24;7.00;;;5.20;;
41687;SDS011;27371;42.686;23.362;2023-06-04T11:53:51;6.00;;;4.78;;
41687;SDS011;27371;42.686;23.362;2023-06-04T11:56:20;6.32;;;5.18;;
41687;SDS011;27371;42.686;23.362;2023-06-04T11:58:46;5.85;;;4.63;;
41687;SDS011;27371;42.686;23.362;2023-06-04T12:01:12;6.70;;;4.90;;
41687;SDS011;27371;42.686;23.362;2023-06-04T12:03:41;5.85;;;4.50;;
41687;SDS011;27371;42.686;23.362;2023-06-04T12:06:10;5.72;;;4.90;;
41687;SDS011;27371;42.686;23.362;2023-06-04T12:11:31;8.13;;;4.85;;
41687;SDS011;27371;42.686;23.362;2023-06-04T12:13:58;6.85;;;5.25;;
41687;SDS011;27371;42.686;23.362;2023-06-04T12:16:25;7.03;;;4.70;;
41687;SDS011;27371;42.686;23.362;2023-06-04T12:18:51;5.95;;;4.53;;
41687;SDS011;27371;42.686;23.362;2023-06-04T12:22:01;6.93;;;4.70;;
41687;SDS011;27371;42.686;23.362;2023-06-04T12:24:31;9.77;;;5.20;;
41687;SDS011;27371;42.686;23.362;2023-06-04T12:27:05;5.70;;;5.13;;
41687;SDS011;27371;42.686;23.362;2023-06-04T12:29:33;6.03;;;5.03;;
41687;SDS011;27371;42.686;23.362;2023-06-04T12:34:41;6.53;;;4.70;;
41687;SDS011;27371;42.686;23.362;2023-06-04T12:37:07;6.03;;;4.47;;
41687;SDS011;27371;42.686;23.362;2023-06-04T12:39:34;7.05;;;4.60;;
41687;SDS011;27371;42.686;23.362;2023-06-04T12:42:01;9.18;;;5.07;;
41687;SDS011;27371;42.686;23.362;2023-06-04T12:44:30;9.18;;;4.93;;
41687;SDS011;27371;42.686;23.362;2023-06-04T12:46:56;6.53;;;4.57;;
41687;SDS011;27371;42.686;23.362;2023-06-04T12:49:22;8.45;;;4.70;;
41687;SDS011;27371;42.686;23.362;2023-06-04T12:51:47;6.97;;;5.13;;
41687;SDS011;27371;42.686;23.362;2023-06-04T12:54:13;9.35;;;4.97;;
41687;SDS011;27371;42.686;23.362;2023-06-04T12:56:39;6.80;;;4.30;;
41687;SDS011;27371;42.686;23.362;2023-06-04T12:59:06;8.05;;;4.70;;
41687;SDS011;27371;42.686;23.362;2023-06-04T13:01:32;5.78;;;4.68;;
41687;SDS011;27371;42.686;23.362;2023-06-04T13:03:58;6.68;;;3.80;;
41687;SDS011;27371;42.686;23.362;2023-06-04T13:06:24;6.28;;;4.63;;
41687;SDS011;27371;42.686;23.362;2023-06-04T13:08:50;6.85;;;4.90;;
41687;SDS011;27371;42.686;23.362;2023-06-04T13:11:16;9.25;;;5.20;;
41687;SDS011;27371;42.686;23.362;2023-06-04T13:13:42;7.93;;;4.70;;
41687;SDS011;27371;42.686;23.362;2023-06-04T13:16:09;8.43;;;4.35;;
41687;SDS011;27371;42.686;23.362;2023-06-04T13:18:34;7.40;;;4.35;;
41687;SDS011;27371;42.686;23.362;2023-06-04T13:21:00;6.30;;;4.78;;
41687;SDS011;27371;42.686;23.362;2023-06-04T13:23:27;7.40;;;4.50;;
41687;SDS011;27371;42.686;23.362;2023-06-04T13:25:52;8.07;;;4.28;;
41687;SDS011;27371;42.686;23.362;2023-06-04T13:28:18;7.47;;;4.45;;
41687;SDS011;27371;42.686;23.362;2023-06-04T13:30:44;6.00;;;4.03;;
41687;SDS011;27371;42.686;23.362;2023-06-04T13:33:09;8.93;;;4.10;;
41687;SDS011;27371;42.686;23.362;2023-06-04T13:35:35;5.63;;;3.60;;
41687;SDS011;27371;42.686;23.362;2023-06-04T13:38:04;6.28;;;4.15;;
41687;SDS011;27371;42.686;23.362;2023-06-04T13:40:34;5.45;;;4.47;;
41687;SDS011;27371;42.686;23.362;2023-06-04T13:43:00;8.30;;;4.10;;
41687;SDS011;27371;42.686;23.362;2023-06-04T13:45:26;6.50;;;4.07;;
41687;SDS011;27371;42.686;23.362;2023-06-04T13:47:52;7.53;;;4.63;;
41687;SDS011;27371;42.686;23.362;2023-06-04T13:50:17;9.05;;;4.45;;
41687;SDS011;27371;42.686;23.362;2023-06-04T13:52:43;6.65;;;3.97;;
41687;SDS011;27371;42.686;23.362;2023-06-04T13:55:08;10.02;;;3.75;;
41687;SDS011;27371;42.686;23.362;2023-06-04T13:57:34;6.05;;;4.05;;
41687;SDS011;27371;42.686;23.362;2023-06-04T14:00:00;6.75;;;3.88;;
41687;SDS011;27371;42.686;23.362;2023-06-04T14:02:26;8.77;;;4.13;;
41687;SDS011;27371;42.686;23.362;2023-06-04T14:04:52;9.25;;;3.85;;
41687;SDS011;27371;42.686;23.362;2023-06-04T14:07:19;5.82;;;3.65;;
41687;SDS011;27371;42.686;23.362;2023-06-04T14:09:45;4.32;;;3.50;;
41687;SDS011;27371;42.686;23.362;2023-06-04T14:12:11;4.60;;;3.97;;
41687;SDS011;27371;42.686;23.362;2023-06-04T14:14:37;6.50;;;3.90;;
41687;SDS011;27371;42.686;23.362;2023-06-04T14:17:03;7.88;;;3.78;;
41687;SDS011;27371;42.686;23.362;2023-06-04T14:19:29;9.57;;;4.00;;
41687;SDS011;27371;42.686;23.362;2023-06-04T14:21:55;6.53;;;3.78;;
41687;SDS011;27371;42.686;23.362;2023-06-04T14:24:20;4.60;;;3.83;;
41687;SDS011;27371;42.686;23.362;2023-06-04T14:26:50;9.23;;;3.97;;
41687;SDS011;27371;42.686;23.362;2023-06-04T14:29:15;7.82;;;3.83;;
41687;SDS011;27371;42.686;23.362;2023-06-04T14:31:41;5.45;;;3.78;;
41687;SDS011;27371;42.686;23.362;2023-06-04T14:34:07;6.38;;;3.25;;
41687;SDS011;27371;42.686;23.362;2023-06-04T14:36:34;5.50;;;4.00;;
41687;SDS011;27371;42.686;23.362;2023-06-04T14:38:59;4.63;;;4.00;;
41687;SDS011;27371;42.686;23.362;2023-06-04T14:41:25;6.00;;;4.28;;
41687;SDS011;27371;42.686;23.362;2023-06-04T14:43:52;5.97;;;4.55;;
41687;SDS011;27371;42.686;23.362;2023-06-04T14:46:17;6.45;;;4.65;;
41687;SDS011;27371;42.686;23.362;2023-06-04T14:48:43;8.50;;;4.45;;
41687;SDS011;27371;42.686;23.362;2023-06-04T14:51:09;6.18;;;4.25;;
41687;SDS011;27371;42.686;23.362;2023-06-04T14:53:35;7.03;;;4.10;;